sensor_id;sensor_type;location;lat;lon;timestamp;temperature;humidity
20690;DHT22;10504;48.762;8.996;2022-09-02T00:01:34;14.50;99.90
20690;DHT22;10504;48.762;8.996;2022-09-02T00:04:06;14.50;99.90
20690;DHT22;10504;48.762;8.996;2022-09-02T00:06:33;14.40;99.90
20690;DHT22;10504;48.762;8.996;2022-09-02T00:08:59;14.40;99.90
20690;DHT22;10504;48.762;8.996;2022-09-02T00:11:28;14.40;99.90
20690;DHT22;10504;48.762;8.996;2022-09-02T00:13:55;14.40;99.90
20690;DHT22;10504;48.762;8.996;2022-09-02T00:16:21;14.30;99.90
20690;DHT22;10504;48.762;8.996;2022-09-02T00:18:48;14.30;99.90
20690;DHT22;10504;48.762;8.996;2022-09-02T00:21:17;14.20;99.90
20690;DHT22;10504;48.762;8.996;2022-09-02T00:23:44;14.20;99.90
20690;DHT22;10504;48.762;8.996;2022-09-02T00:26:10;14.20;99.90
20690;DHT22;10504;48.762;8.996;2022-09-02T00:28:36;14.20;99.90
20690;DHT22;10504;48.762;8.996;2022-09-02T00:31:03;14.10;99.90
20690;DHT22;10504;48.762;8.996;2022-09-02T00:33:29;14.10;99.90
20690;DHT22;10504;48.762;8.996;2022-09-02T00:36:01;14.10;99.90
20690;DHT22;10504;48.762;8.996;2022-09-02T00:38:27;14.10;99.90
20690;DHT22;10504;48.762;8.996;2022-09-02T00:40:53;14.10;99.90
20690;DHT22;10504;48.762;8.996;2022-09-02T00:46:05;14.00;99.90
20690;DHT22;10504;48.762;8.996;2022-09-02T00:48:32;14.00;99.90
20690;DHT22;10504;48.762;8.996;2022-09-02T00:50:59;14.00;99.90
20690;DHT22;10504;48.762;8.996;2022-09-02T00:53:27;14.00;99.90
20690;DHT22;10504;48.762;8.996;2022-09-02T00:55:52;14.00;99.90
20690;DHT22;10504;48.762;8.996;2022-09-02T00:58:23;13.90;99.90
20690;DHT22;10504;48.762;8.996;2022-09-02T01:00:53;14.00;99.90
20690;DHT22;10504;48.762;8.996;2022-09-02T01:03:24;13.90;99.90
20690;DHT22;10504;48.762;8.996;2022-09-02T01:05:51;13.90;99.90
20690;DHT22;10504;48.762;8.996;2022-09-02T01:08:21;13.80;99.90
20690;DHT22;10504;48.762;8.996;2022-09-02T01:10:50;13.80;99.90
20690;DHT22;10504;48.762;8.996;2022-09-02T01:13:21;13.70;99.90
20690;DHT22;10504;48.762;8.996;2022-09-02T01:15:55;13.70;99.90
20690;DHT22;10504;48.762;8.996;2022-09-02T01:18:25;13.70;99.90
20690;DHT22;10504;48.762;8.996;2022-09-02T01:20:54;13.70;99.90
20690;DHT22;10504;48.762;8.996;2022-09-02T01:23:20;13.70;99.90
20690;DHT22;10504;48.762;8.996;2022-09-02T01:25:46;13.70;99.90
20690;DHT22;10504;48.762;8.996;2022-09-02T01:28:14;13.70;99.90
20690;DHT22;10504;48.762;8.996;2022-09-02T01:30:47;13.70;99.90
20690;DHT22;10504;48.762;8.996;2022-09-02T01:33:13;13.70;99.90
20690;DHT22;10504;48.762;8.996;2022-09-02T01:35:39;13.60;99.90
20690;DHT22;10504;48.762;8.996;2022-09-02T01:38:06;13.60;99.90
20690;DHT22;10504;48.762;8.996;2022-09-02T01:40:32;13.60;99.90
20690;DHT22;10504;48.762;8.996;2022-09-02T01:43:05;13.50;99.90
20690;DHT22;10504;48.762;8.996;2022-09-02T01:45:38;13.50;99.90
20690;DHT22;10504;48.762;8.996;2022-09-02T01:48:05;13.50;99.90
20690;DHT22;10504;48.762;8.996;2022-09-02T01:50:31;13.40;99.90
20690;DHT22;10504;48.762;8.996;2022-09-02T01:52:58;13.40;99.90
20690;DHT22;10504;48.762;8.996;2022-09-02T01:55:26;13.40;99.90
20690;DHT22;10504;48.762;8.996;2022-09-02T01:57:52;13.40;99.90
20690;DHT22;10504;48.762;8.996;2022-09-02T02:00:18;13.50;99.90
20690;DHT22;10504;48.762;8.996;2022-09-02T02:02:43;13.50;99.90
20690;DHT22;10504;48.762;8.996;2022-09-02T02:05:09;13.50;99.90
20690;DHT22;10504;48.762;8.996;2022-09-02T02:07:36;13.40;99.90
20690;DHT22;10504;48.762;8.996;2022-09-02T02:10:03;13.40;99.90
20690;DHT22;10504;48.762;8.996;2022-09-02T02:12:29;13.40;99.90
20690;DHT22;10504;48.762;8.996;2022-09-02T02:14:55;13.40;99.90
20690;DHT22;10504;48.762;8.996;2022-09-02T02:17:21;13.30;99.90
20690;DHT22;10504;48.762;8.996;2022-09-02T02:19:47;13.30;99.90
20690;DHT22;10504;48.762;8.996;2022-09-02T02:22:12;13.30;99.90
20690;DHT22;10504;48.762;8.996;2022-09-02T02:24:38;13.20;99.90
20690;DHT22;10504;48.762;8.996;2022-09-02T02:27:04;13.20;99.90
20690;DHT22;10504;48.762;8.996;2022-09-02T02:29:29;13.20;99.90
20690;DHT22;10504;48.762;8.996;2022-09-02T02:31:55;13.20;99.90
20690;DHT22;10504;48.762;8.996;2022-09-02T02:34:21;13.20;99.90
20690;DHT22;10504;48.762;8.996;2022-09-02T02:36:47;13.10;99.90
20690;DHT22;10504;48.762;8.996;2022-09-02T02:39:12;13.10;99.90
20690;DHT22;10504;48.762;8.996;2022-09-02T02:41:39;13.10;99.90
20690;DHT22;10504;48.762;8.996;2022-09-02T02:44:06;13.00;99.90
20690;DHT22;10504;48.762;8.996;2022-09-02T02:46:32;13.00;99.90
20690;DHT22;10504;48.762;8.996;2022-09-02T02:49:00;13.00;99.90
20690;DHT22;10504;48.762;8.996;2022-09-02T02:51:26;13.00;99.90
20690;DHT22;10504;48.762;8.996;2022-09-02T02:53:52;13.00;99.90
20690;DHT22;10504;48.762;8.996;2022-09-02T02:56:18;13.00;99.90
20690;DHT22;10504;48.762;8.996;2022-09-02T02:58:44;13.00;99.90
20690;DHT22;10504;48.762;8.996;2022-09-02T03:01:10;13.00;99.90
20690;DHT22;10504;48.762;8.996;2022-09-02T03:03:36;13.00;99.90
20690;DHT22;10504;48.762;8.996;2022-09-02T03:06:01;13.00;99.90
20690;DHT22;10504;48.762;8.996;2022-09-02T03:08:27;13.10;99.90
20690;DHT22;10504;48.762;8.996;2022-09-02T03:10:54;13.10;99.90
20690;DHT22;10504;48.762;8.996;2022-09-02T03:13:21;13.10;99.90
20690;DHT22;10504;48.762;8.996;2022-09-02T03:15:47;13.10;99.90
20690;DHT22;10504;48.762;8.996;2022-09-02T03:18:14;13.10;99.90
20690;DHT22;10504;48.762;8.996;2022-09-02T03:20:40;13.00;99.90
20690;DHT22;10504;48.762;8.996;2022-09-02T03:23:06;13.00;99.90
20690;DHT22;10504;48.762;8.996;2022-09-02T03:25:33;13.00;99.90
20690;DHT22;10504;48.762;8.996;2022-09-02T03:28:00;13.00;99.90
20690;DHT22;10504;48.762;8.996;2022-09-02T03:30:29;12.90;99.90
20690;DHT22;10504;48.762;8.996;2022-09-02T03:32:57;13.00;99.90
20690;DHT22;10504;48.762;8.996;2022-09-02T03:35:26;12.90;99.90
20690;DHT22;10504;48.762;8.996;2022-09-02T03:37:52;12.90;99.90
20690;DHT22;10504;48.762;8.996;2022-09-02T03:40:21;12.90;99.90
20690;DHT22;10504;48.762;8.996;2022-09-02T03:42:47;12.80;99.90
20690;DHT22;10504;48.762;8.996;2022-09-02T03:45:14;12.80;99.90
20690;DHT22;10504;48.762;8.996;2022-09-02T03:47:41;12.80;99.90
20690;DHT22;10504;48.762;8.996;2022-09-02T03:50:48;12.70;99.90
20690;DHT22;10504;48.762;8.996;2022-09-02T03:53:08;12.70;99.90
20690;DHT22;10504;48.762;8.996;2022-09-02T03:55:35;12.70;99.90
20690;DHT22;10504;48.762;8.996;2022-09-02T03:58:01;12.70;99.90
20690;DHT22;10504;48.762;8.996;2022-09-02T04:00:27;12.60;99.90
20690;DHT22;10504;48.762;8.996;2022-09-02T04:02:54;12.60;99.90
20690;DHT22;10504;48.762;8.996;2022-09-02T04:05:21;12.60;99.90
20690;DHT22;10504;48.762;8.996;2022-09-02T04:07:47;12.60;99.90
20690;DHT22;10504;48.762;8.996;2022-09-02T04:10:15;12.60;99.90
20690;DHT22;10504;48.762;8.996;2022-09-02T04:12:41;12.60;99.90
20690;DHT22;10504;48.762;8.996;2022-09-02T04:15:09;12.60;99.90
20690;DHT22;10504;48.762;8.996;2022-09-02T04:17:40;12.60;99.90
20690;DHT22;10504;48.762;8.996;2022-09-02T04:20:09;12.50;99.90
20690;DHT22;10504;48.762;8.996;2022-09-02T04:22:35;12.50;99.90
20690;DHT22;10504;48.762;8.996;2022-09-02T04:25:02;12.50;99.90
20690;DHT22;10504;48.762;8.996;2022-09-02T04:27:28;12.50;99.90
20690;DHT22;10504;48.762;8.996;2022-09-02T04:29:54;12.50;99.90
20690;DHT22;10504;48.762;8.996;2022-09-02T04:32:20;12.40;99.90
20690;DHT22;10504;48.762;8.996;2022-09-02T04:34:47;12.40;99.90
20690;DHT22;10504;48.762;8.996;2022-09-02T04:37:13;12.40;99.90
20690;DHT22;10504;48.762;8.996;2022-09-02T04:39:39;12.40;99.90
20690;DHT22;10504;48.762;8.996;2022-09-02T04:42:05;12.30;99.90
20690;DHT22;10504;48.762;8.996;2022-09-02T04:44:31;12.30;99.90
20690;DHT22;10504;48.762;8.996;2022-09-02T04:46:57;12.20;99.90
20690;DHT22;10504;48.762;8.996;2022-09-02T04:49:23;12.30;99.90
20690;DHT22;10504;48.762;8.996;2022-09-02T04:51:48;12.30;99.90
20690;DHT22;10504;48.762;8.996;2022-09-02T04:54:15;12.30;99.90
20690;DHT22;10504;48.762;8.996;2022-09-02T04:56:41;12.30;99.90
20690;DHT22;10504;48.762;8.996;2022-09-02T04:59:07;12.30;99.90
20690;DHT22;10504;48.762;8.996;2022-09-02T05:01:34;12.20;99.90
20690;DHT22;10504;48.762;8.996;2022-09-02T05:04:03;12.20;99.90
20690;DHT22;10504;48.762;8.996;2022-09-02T05:06:29;12.20;99.90
20690;DHT22;10504;48.762;8.996;2022-09-02T05:08:56;12.20;99.90
20690;DHT22;10504;48.762;8.996;2022-09-02T05:11:25;12.20;99.90
20690;DHT22;10504;48.762;8.996;2022-09-02T05:13:56;12.30;99.90
20690;DHT22;10504;48.762;8.996;2022-09-02T05:16:32;12.30;99.90
20690;DHT22;10504;48.762;8.996;2022-09-02T05:18:58;12.30;99.90
20690;DHT22;10504;48.762;8.996;2022-09-02T05:21:25;12.30;99.90
20690;DHT22;10504;48.762;8.996;2022-09-02T05:23:51;12.30;99.90
20690;DHT22;10504;48.762;8.996;2022-09-02T05:26:17;12.30;99.90
20690;DHT22;10504;48.762;8.996;2022-09-02T05:28:43;12.30;99.90
20690;DHT22;10504;48.762;8.996;2022-09-02T05:31:12;12.30;99.90
20690;DHT22;10504;48.762;8.996;2022-09-02T05:33:40;12.30;99.90
20690;DHT22;10504;48.762;8.996;2022-09-02T05:36:08;12.30;99.90
20690;DHT22;10504;48.762;8.996;2022-09-02T05:38:37;12.30;99.90
20690;DHT22;10504;48.762;8.996;2022-09-02T05:41:07;12.40;99.90
20690;DHT22;10504;48.762;8.996;2022-09-02T05:43:38;12.40;99.90
20690;DHT22;10504;48.762;8.996;2022-09-02T05:46:09;12.40;99.90
20690;DHT22;10504;48.762;8.996;2022-09-02T05:48:36;12.40;99.90
20690;DHT22;10504;48.762;8.996;2022-09-02T05:51:22;12.40;99.90
20690;DHT22;10504;48.762;8.996;2022-09-02T05:53:51;12.50;99.90
20690;DHT22;10504;48.762;8.996;2022-09-02T05:56:17;12.50;99.90
20690;DHT22;10504;48.762;8.996;2022-09-02T05:58:43;12.50;99.90
20690;DHT22;10504;48.762;8.996;2022-09-02T06:01:10;12.60;99.90
20690;DHT22;10504;48.762;8.996;2022-09-02T06:03:36;12.60;99.90
20690;DHT22;10504;48.762;8.996;2022-09-02T06:06:03;12.70;99.90
20690;DHT22;10504;48.762;8.996;2022-09-02T06:08:29;12.70;99.90
20690;DHT22;10504;48.762;8.996;2022-09-02T06:10:55;12.70;99.90
20690;DHT22;10504;48.762;8.996;2022-09-02T06:13:21;12.80;99.90
20690;DHT22;10504;48.762;8.996;2022-09-02T06:15:48;12.80;99.90
20690;DHT22;10504;48.762;8.996;2022-09-02T06:18:14;12.80;99.90
20690;DHT22;10504;48.762;8.996;2022-09-02T06:20:44;12.90;99.90
20690;DHT22;10504;48.762;8.996;2022-09-02T06:23:11;12.90;99.90
20690;DHT22;10504;48.762;8.996;2022-09-02T06:25:38;13.00;99.90
20690;DHT22;10504;48.762;8.996;2022-09-02T06:28:04;13.10;99.90
20690;DHT22;10504;48.762;8.996;2022-09-02T06:30:31;13.10;99.90
20690;DHT22;10504;48.762;8.996;2022-09-02T06:32:56;13.10;99.90
20690;DHT22;10504;48.762;8.996;2022-09-02T06:35:22;13.10;99.90
20690;DHT22;10504;48.762;8.996;2022-09-02T06:37:48;13.10;99.90
20690;DHT22;10504;48.762;8.996;2022-09-02T06:40:14;13.20;99.90
20690;DHT22;10504;48.762;8.996;2022-09-02T06:42:41;13.20;99.90
20690;DHT22;10504;48.762;8.996;2022-09-02T06:45:07;13.30;99.90
20690;DHT22;10504;48.762;8.996;2022-09-02T06:47:33;13.30;99.90
20690;DHT22;10504;48.762;8.996;2022-09-02T06:49:59;13.40;99.90
20690;DHT22;10504;48.762;8.996;2022-09-02T06:52:25;13.40;99.90
20690;DHT22;10504;48.762;8.996;2022-09-02T06:54:51;13.50;99.90
20690;DHT22;10504;48.762;8.996;2022-09-02T06:57:17;13.50;99.90
20690;DHT22;10504;48.762;8.996;2022-09-02T06:59:42;13.60;99.90
20690;DHT22;10504;48.762;8.996;2022-09-02T07:02:08;13.60;99.90
20690;DHT22;10504;48.762;8.996;2022-09-02T07:04:34;13.70;99.90
20690;DHT22;10504;48.762;8.996;2022-09-02T07:07:18;13.70;99.90
20690;DHT22;10504;48.762;8.996;2022-09-02T07:09:44;13.80;99.90
20690;DHT22;10504;48.762;8.996;2022-09-02T07:12:09;13.80;99.90
20690;DHT22;10504;48.762;8.996;2022-09-02T07:14:37;13.90;99.90
20690;DHT22;10504;48.762;8.996;2022-09-02T07:17:04;13.90;99.90
20690;DHT22;10504;48.762;8.996;2022-09-02T07:19:30;14.00;99.90
20690;DHT22;10504;48.762;8.996;2022-09-02T07:21:56;14.00;99.90
20690;DHT22;10504;48.762;8.996;2022-09-02T07:24:22;14.10;99.90
20690;DHT22;10504;48.762;8.996;2022-09-02T07:26:48;14.10;99.90
20690;DHT22;10504;48.762;8.996;2022-09-02T07:29:15;14.20;99.90
20690;DHT22;10504;48.762;8.996;2022-09-02T07:31:43;14.20;99.90
20690;DHT22;10504;48.762;8.996;2022-09-02T07:34:10;14.30;99.90
20690;DHT22;10504;48.762;8.996;2022-09-02T07:36:37;14.30;99.90
20690;DHT22;10504;48.762;8.996;2022-09-02T07:39:05;14.40;99.90
20690;DHT22;10504;48.762;8.996;2022-09-02T07:41:31;14.50;99.90
20690;DHT22;10504;48.762;8.996;2022-09-02T07:43:57;14.50;99.90
20690;DHT22;10504;48.762;8.996;2022-09-02T07:46:23;14.50;99.90
20690;DHT22;10504;48.762;8.996;2022-09-02T07:48:49;14.60;99.90
20690;DHT22;10504;48.762;8.996;2022-09-02T07:51:16;14.60;99.90
20690;DHT22;10504;48.762;8.996;2022-09-02T07:53:42;14.70;99.90
20690;DHT22;10504;48.762;8.996;2022-09-02T07:56:08;14.70;99.90
20690;DHT22;10504;48.762;8.996;2022-09-02T07:58:34;14.80;99.90
20690;DHT22;10504;48.762;8.996;2022-09-02T08:01:00;14.80;99.90
20690;DHT22;10504;48.762;8.996;2022-09-02T08:03:27;14.90;99.90
20690;DHT22;10504;48.762;8.996;2022-09-02T08:05:53;14.90;99.90
20690;DHT22;10504;48.762;8.996;2022-09-02T08:08:22;14.90;99.90
20690;DHT22;10504;48.762;8.996;2022-09-02T08:10:49;15.00;99.90
20690;DHT22;10504;48.762;8.996;2022-09-02T08:13:15;15.00;99.90
20690;DHT22;10504;48.762;8.996;2022-09-02T08:15:42;15.00;99.90
20690;DHT22;10504;48.762;8.996;2022-09-02T08:18:08;15.10;99.90
20690;DHT22;10504;48.762;8.996;2022-09-02T08:20:34;15.10;99.90
20690;DHT22;10504;48.762;8.996;2022-09-02T08:23:00;15.10;99.90
20690;DHT22;10504;48.762;8.996;2022-09-02T08:25:27;15.10;99.90
20690;DHT22;10504;48.762;8.996;2022-09-02T08:27:53;15.20;99.90
20690;DHT22;10504;48.762;8.996;2022-09-02T08:30:19;15.30;99.90
20690;DHT22;10504;48.762;8.996;2022-09-02T08:32:45;15.30;99.90
20690;DHT22;10504;48.762;8.996;2022-09-02T08:35:11;15.30;99.90
20690;DHT22;10504;48.762;8.996;2022-09-02T08:37:37;15.40;99.90
20690;DHT22;10504;48.762;8.996;2022-09-02T08:40:05;15.40;99.90
20690;DHT22;10504;48.762;8.996;2022-09-02T08:42:33;15.40;99.90
20690;DHT22;10504;48.762;8.996;2022-09-02T08:45:08;15.50;99.90
20690;DHT22;10504;48.762;8.996;2022-09-02T08:47:36;15.50;99.90
20690;DHT22;10504;48.762;8.996;2022-09-02T08:50:09;15.60;99.90
20690;DHT22;10504;48.762;8.996;2022-09-02T08:55:34;15.70;99.90
20690;DHT22;10504;48.762;8.996;2022-09-02T08:58:01;15.80;99.90
20690;DHT22;10504;48.762;8.996;2022-09-02T09:00:29;15.80;99.90
20690;DHT22;10504;48.762;8.996;2022-09-02T09:03:11;15.90;99.90
20690;DHT22;10504;48.762;8.996;2022-09-02T09:06:14;15.90;99.90
20690;DHT22;10504;48.762;8.996;2022-09-02T09:08:59;15.90;99.90
20690;DHT22;10504;48.762;8.996;2022-09-02T09:15:00;15.90;99.90
20690;DHT22;10504;48.762;8.996;2022-09-02T09:17:23;16.00;99.90
20690;DHT22;10504;48.762;8.996;2022-09-02T09:19:55;16.10;99.90
20690;DHT22;10504;48.762;8.996;2022-09-02T09:22:34;16.10;99.90
20690;DHT22;10504;48.762;8.996;2022-09-02T09:25:06;16.20;99.90
20690;DHT22;10504;48.762;8.996;2022-09-02T09:27:33;16.30;99.90
20690;DHT22;10504;48.762;8.996;2022-09-02T09:29:58;16.30;99.90
20690;DHT22;10504;48.762;8.996;2022-09-02T09:32:32;16.30;99.90
20690;DHT22;10504;48.762;8.996;2022-09-02T09:35:09;16.40;99.90
20690;DHT22;10504;48.762;8.996;2022-09-02T09:37:43;16.40;99.90
20690;DHT22;10504;48.762;8.996;2022-09-02T09:45:40;16.60;99.90
20690;DHT22;10504;48.762;8.996;2022-09-02T09:50:49;16.70;99.90
20690;DHT22;10504;48.762;8.996;2022-09-02T09:53:34;16.70;99.90
20690;DHT22;10504;48.762;8.996;2022-09-02T09:56:06;16.70;99.90
20690;DHT22;10504;48.762;8.996;2022-09-02T10:09:03;16.90;99.90
20690;DHT22;10504;48.762;8.996;2022-09-02T10:11:32;16.90;99.90
20690;DHT22;10504;48.762;8.996;2022-09-02T10:14:04;17.00;99.90
20690;DHT22;10504;48.762;8.996;2022-09-02T10:36:24;17.70;99.90
20690;DHT22;10504;48.762;8.996;2022-09-02T10:39:02;17.70;99.90
20690;DHT22;10504;48.762;8.996;2022-09-02T10:41:42;17.80;99.90
20690;DHT22;10504;48.762;8.996;2022-09-02T10:44:26;17.90;99.90
20690;DHT22;10504;48.762;8.996;2022-09-02T10:47:09;18.00;99.90
20690;DHT22;10504;48.762;8.996;2022-09-02T10:58:13;18.30;99.90
20690;DHT22;10504;48.762;8.996;2022-09-02T11:00:43;18.40;99.90
20690;DHT22;10504;48.762;8.996;2022-09-02T11:06:28;18.60;99.90
20690;DHT22;10504;48.762;8.996;2022-09-02T11:08:59;18.60;99.90
20690;DHT22;10504;48.762;8.996;2022-09-02T11:11:32;18.70;99.90
20690;DHT22;10504;48.762;8.996;2022-09-02T11:16:48;18.80;99.90
20690;DHT22;10504;48.762;8.996;2022-09-02T11:19:35;18.90;99.90
20690;DHT22;10504;48.762;8.996;2022-09-02T11:24:35;19.10;99.90
20690;DHT22;10504;48.762;8.996;2022-09-02T11:27:11;19.10;99.90
20690;DHT22;10504;48.762;8.996;2022-09-02T11:33:42;19.10;99.90
20690;DHT22;10504;48.762;8.996;2022-09-02T11:35:36;19.20;99.90
20690;DHT22;10504;48.762;8.996;2022-09-02T11:40:38;19.40;99.90
20690;DHT22;10504;48.762;8.996;2022-09-02T11:43:27;19.40;99.90
20690;DHT22;10504;48.762;8.996;2022-09-02T11:54:08;19.80;99.90
20690;DHT22;10504;48.762;8.996;2022-09-02T11:56:39;19.90;99.90
20690;DHT22;10504;48.762;8.996;2022-09-02T11:59:07;20.00;99.90
20690;DHT22;10504;48.762;8.996;2022-09-02T12:01:37;20.10;99.90
20690;DHT22;10504;48.762;8.996;2022-09-02T12:04:19;20.10;99.90
20690;DHT22;10504;48.762;8.996;2022-09-02T12:15:13;20.40;99.90
20690;DHT22;10504;48.762;8.996;2022-09-02T12:23:02;20.50;99.90
20690;DHT22;10504;48.762;8.996;2022-09-02T12:33:33;20.50;99.90
20690;DHT22;10504;48.762;8.996;2022-09-02T12:36:00;20.50;99.90
20690;DHT22;10504;48.762;8.996;2022-09-02T12:41:00;20.70;99.90
20690;DHT22;10504;48.762;8.996;2022-09-02T12:46:29;21.00;99.90
20690;DHT22;10504;48.762;8.996;2022-09-02T12:49:36;21.20;99.90
20690;DHT22;10504;48.762;8.996;2022-09-02T12:52:04;21.40;99.90
20690;DHT22;10504;48.762;8.996;2022-09-02T12:54:47;21.60;99.90
20690;DHT22;10504;48.762;8.996;2022-09-02T12:57:15;21.60;99.90
20690;DHT22;10504;48.762;8.996;2022-09-02T12:59:43;21.80;99.90
20690;DHT22;10504;48.762;8.996;2022-09-02T13:05:26;22.00;99.90
20690;DHT22;10504;48.762;8.996;2022-09-02T13:13:58;22.30;99.90
20690;DHT22;10504;48.762;8.996;2022-09-02T13:25:25;22.30;99.90
20690;DHT22;10504;48.762;8.996;2022-09-02T13:33:36;22.20;99.90
20690;DHT22;10504;48.762;8.996;2022-09-02T13:36:02;22.20;99.90
20690;DHT22;10504;48.762;8.996;2022-09-02T13:38:29;22.20;99.90
20690;DHT22;10504;48.762;8.996;2022-09-02T13:40:57;22.30;99.90
20690;DHT22;10504;48.762;8.996;2022-09-02T13:43:24;22.30;99.90
20690;DHT22;10504;48.762;8.996;2022-09-02T13:45:53;22.30;99.90
20690;DHT22;10504;48.762;8.996;2022-09-02T13:48:22;22.30;99.90
20690;DHT22;10504;48.762;8.996;2022-09-02T13:50:51;22.40;99.90
20690;DHT22;10504;48.762;8.996;2022-09-02T13:55:54;22.40;99.90
20690;DHT22;10504;48.762;8.996;2022-09-02T13:58:35;22.30;99.90
20690;DHT22;10504;48.762;8.996;2022-09-02T14:01:26;22.30;99.90
20690;DHT22;10504;48.762;8.996;2022-09-02T14:03:53;22.30;99.90
20690;DHT22;10504;48.762;8.996;2022-09-02T14:06:22;22.30;99.90
20690;DHT22;10504;48.762;8.996;2022-09-02T14:08:55;22.20;99.90
20690;DHT22;10504;48.762;8.996;2022-09-02T14:11:23;22.30;99.90
20690;DHT22;10504;48.762;8.996;2022-09-02T14:13:50;22.20;99.90
20690;DHT22;10504;48.762;8.996;2022-09-02T14:16:32;22.20;99.90
20690;DHT22;10504;48.762;8.996;2022-09-02T14:21:54;22.10;99.90
20690;DHT22;10504;48.762;8.996;2022-09-02T14:24:23;22.00;99.90
20690;DHT22;10504;48.762;8.996;2022-09-02T14:26:51;22.00;99.90
20690;DHT22;10504;48.762;8.996;2022-09-02T14:29:19;21.90;99.90
20690;DHT22;10504;48.762;8.996;2022-09-02T14:31:45;21.90;99.90
20690;DHT22;10504;48.762;8.996;2022-09-02T14:34:31;21.90;99.90
20690;DHT22;10504;48.762;8.996;2022-09-02T14:36:58;21.80;99.90
20690;DHT22;10504;48.762;8.996;2022-09-02T14:39:24;21.80;99.90
20690;DHT22;10504;48.762;8.996;2022-09-02T14:41:51;21.80;99.90
20690;DHT22;10504;48.762;8.996;2022-09-02T14:46:58;21.70;99.90
20690;DHT22;10504;48.762;8.996;2022-09-02T14:49:27;21.60;99.90
20690;DHT22;10504;48.762;8.996;2022-09-02T14:51:59;21.50;99.90
20690;DHT22;10504;48.762;8.996;2022-09-02T14:54:41;21.50;99.90
20690;DHT22;10504;48.762;8.996;2022-09-02T14:57:33;21.40;99.90
20690;DHT22;10504;48.762;8.996;2022-09-02T15:00:09;21.40;99.90
20690;DHT22;10504;48.762;8.996;2022-09-02T15:02:39;21.30;99.90
20690;DHT22;10504;48.762;8.996;2022-09-02T15:05:08;21.30;99.90
20690;DHT22;10504;48.762;8.996;2022-09-02T15:07:34;21.30;99.90
20690;DHT22;10504;48.762;8.996;2022-09-02T15:10:00;21.20;99.90
20690;DHT22;10504;48.762;8.996;2022-09-02T15:12:33;21.20;99.90
20690;DHT22;10504;48.762;8.996;2022-09-02T15:15:00;21.20;99.90
20690;DHT22;10504;48.762;8.996;2022-09-02T15:17:26;21.10;99.90
20690;DHT22;10504;48.762;8.996;2022-09-02T15:19:52;21.10;99.90
20690;DHT22;10504;48.762;8.996;2022-09-02T15:22:18;21.00;99.90
20690;DHT22;10504;48.762;8.996;2022-09-02T15:24:47;21.00;99.90
20690;DHT22;10504;48.762;8.996;2022-09-02T15:27:14;21.00;99.90
20690;DHT22;10504;48.762;8.996;2022-09-02T15:29:40;20.90;99.90
20690;DHT22;10504;48.762;8.996;2022-09-02T15:32:06;20.80;99.90
20690;DHT22;10504;48.762;8.996;2022-09-02T15:34:32;20.80;99.90
20690;DHT22;10504;48.762;8.996;2022-09-02T15:36:59;20.70;99.90
20690;DHT22;10504;48.762;8.996;2022-09-02T15:39:25;20.60;99.90
20690;DHT22;10504;48.762;8.996;2022-09-02T15:41:52;20.60;99.90
20690;DHT22;10504;48.762;8.996;2022-09-02T15:44:20;20.50;99.90
20690;DHT22;10504;48.762;8.996;2022-09-02T15:46:46;20.50;99.90
20690;DHT22;10504;48.762;8.996;2022-09-02T15:49:14;20.50;99.90
20690;DHT22;10504;48.762;8.996;2022-09-02T15:51:42;20.40;99.90
20690;DHT22;10504;48.762;8.996;2022-09-02T15:54:13;20.30;99.90
20690;DHT22;10504;48.762;8.996;2022-09-02T15:56:41;20.20;99.90
20690;DHT22;10504;48.762;8.996;2022-09-02T15:59:17;20.20;99.90
20690;DHT22;10504;48.762;8.996;2022-09-02T16:01:50;20.10;99.90
20690;DHT22;10504;48.762;8.996;2022-09-02T16:04:16;20.10;99.90
20690;DHT22;10504;48.762;8.996;2022-09-02T16:06:44;20.00;99.90
20690;DHT22;10504;48.762;8.996;2022-09-02T16:09:14;20.00;99.90
20690;DHT22;10504;48.762;8.996;2022-09-02T16:11:44;19.90;99.90
20690;DHT22;10504;48.762;8.996;2022-09-02T16:14:11;19.90;99.90
20690;DHT22;10504;48.762;8.996;2022-09-02T16:16:37;19.80;99.90
20690;DHT22;10504;48.762;8.996;2022-09-02T16:19:05;19.80;99.90
20690;DHT22;10504;48.762;8.996;2022-09-02T16:21:32;19.70;99.90
20690;DHT22;10504;48.762;8.996;2022-09-02T16:23:57;19.70;99.90
20690;DHT22;10504;48.762;8.996;2022-09-02T16:26:30;19.60;99.90
20690;DHT22;10504;48.762;8.996;2022-09-02T16:29:05;19.60;99.90
20690;DHT22;10504;48.762;8.996;2022-09-02T16:31:33;19.50;99.90
20690;DHT22;10504;48.762;8.996;2022-09-02T16:34:25;19.50;99.90
20690;DHT22;10504;48.762;8.996;2022-09-02T16:36:51;19.40;99.90
20690;DHT22;10504;48.762;8.996;2022-09-02T16:39:18;19.40;99.90
20690;DHT22;10504;48.762;8.996;2022-09-02T16:41:49;19.30;99.90
20690;DHT22;10504;48.762;8.996;2022-09-02T16:44:20;19.30;99.90
20690;DHT22;10504;48.762;8.996;2022-09-02T16:46:48;19.30;99.90
20690;DHT22;10504;48.762;8.996;2022-09-02T16:49:15;19.30;99.90
20690;DHT22;10504;48.762;8.996;2022-09-02T16:51:46;19.30;99.90
20690;DHT22;10504;48.762;8.996;2022-09-02T16:54:13;19.30;99.90
20690;DHT22;10504;48.762;8.996;2022-09-02T16:56:39;19.30;99.90
20690;DHT22;10504;48.762;8.996;2022-09-02T16:59:06;19.20;99.90
20690;DHT22;10504;48.762;8.996;2022-09-02T17:01:33;19.20;99.90
20690;DHT22;10504;48.762;8.996;2022-09-02T17:03:59;19.20;99.90
20690;DHT22;10504;48.762;8.996;2022-09-02T17:06:25;19.20;99.90
20690;DHT22;10504;48.762;8.996;2022-09-02T17:08:51;19.20;99.90
20690;DHT22;10504;48.762;8.996;2022-09-02T17:16:32;19.00;99.90
20690;DHT22;10504;48.762;8.996;2022-09-02T17:18:58;19.00;99.90
20690;DHT22;10504;48.762;8.996;2022-09-02T17:21:44;18.90;99.90
20690;DHT22;10504;48.762;8.996;2022-09-02T17:24:13;18.80;99.90
20690;DHT22;10504;48.762;8.996;2022-09-02T17:26:42;18.80;99.90
20690;DHT22;10504;48.762;8.996;2022-09-02T17:29:10;18.70;99.90
20690;DHT22;10504;48.762;8.996;2022-09-02T17:31:37;18.70;99.90
20690;DHT22;10504;48.762;8.996;2022-09-02T17:34:07;18.60;99.90
20690;DHT22;10504;48.762;8.996;2022-09-02T17:36:35;18.60;99.90
20690;DHT22;10504;48.762;8.996;2022-09-02T17:39:08;18.50;99.90
20690;DHT22;10504;48.762;8.996;2022-09-02T17:41:35;18.40;99.90
20690;DHT22;10504;48.762;8.996;2022-09-02T17:44:21;18.40;99.90
20690;DHT22;10504;48.762;8.996;2022-09-02T17:46:47;18.30;99.90
20690;DHT22;10504;48.762;8.996;2022-09-02T17:49:13;18.20;99.90
20690;DHT22;10504;48.762;8.996;2022-09-02T17:51:39;18.20;99.90
20690;DHT22;10504;48.762;8.996;2022-09-02T17:54:05;18.10;99.90
20690;DHT22;10504;48.762;8.996;2022-09-02T18:05:16;17.90;99.90
20690;DHT22;10504;48.762;8.996;2022-09-02T18:08:12;17.80;99.90
20690;DHT22;10504;48.762;8.996;2022-09-02T18:10:56;17.80;99.90
20690;DHT22;10504;48.762;8.996;2022-09-02T18:18:43;17.60;99.90